Time;durP1;ratioP1;P1;durP2;ratioP2;P2;SDS_P1;SDS_P2;PMS_P1;PMS_P2;Temp;Humidity;BMP_temperature;BMP_pressure;BME280_temperature;BME280_humidity;BME280_pressure;Samples;Min_cycle;Max_cycle;Signal;HPM_P1;HPM_P2
2022/10/16 00:00:21;;;;;;;4.28;1.08;;;;;;;14.04;90.32;96287.22;4994743;28;21848;-79
2022/10/16 00:02:48;;;;;;;3.28;1.30;;;;;;;14.08;90.35;96284.59;4995455;28;20125;-79
2022/10/16 00:05:14;;;;;;;3.15;1.05;;;;;;;14.05;90.41;96288.81;4993834;28;20047;-79
2022/10/16 00:07:41;;;;;;;3.90;1.13;;;;;;;14.05;90.53;96293.50;4994386;28;20498;-77
2022/10/16 00:10:08;;;;;;;2.22;1.00;;;;;;;14.04;90.59;96291.88;4993598;28;20054;-77
2022/10/16 00:12:36;;;;;;;2.55;1.27;;;;;;;14.06;90.36;96295.09;4994935;28;20068;-78
2022/10/16 00:15:03;;;;;;;1.70;1.05;;;;;;;14.04;90.46;96287.22;4993527;28;20524;-78
2022/10/16 00:17:30;;;;;;;1.58;1.10;;;;;;;14.02;90.53;96288.69;4994721;28;20050;-79
2022/10/16 00:19:57;;;;;;;2.10;1.25;;;;;;;14.02;90.62;96294.19;4995874;28;20046;-78
2022/10/16 00:22:24;;;;;;;2.72;1.05;;;;;;;14.01;90.41;96298.06;4993937;28;20104;-78
2022/10/16 00:24:50;;;;;;;1.90;0.95;;;;;;;14.01;90.57;96304.34;4991909;28;20047;-78
2022/10/16 00:27:17;;;;;;;3.33;1.10;;;;;;;13.99;90.68;96305.78;4995809;28;20042;-78
2022/10/16 00:29:45;;;;;;;8.85;2.35;;;;;;;13.92;91.39;96308.31;4994014;28;20042;-79
2022/10/16 00:32:12;;;;;;;5.50;1.67;;;;;;;14.02;91.09;96316.06;4993579;28;20050;-78
2022/10/16 00:34:38;;;;;;;3.60;1.63;;;;;;;14.03;90.97;96315.72;4993357;28;20053;-78
2022/10/16 00:37:05;;;;;;;6.05;1.80;;;;;;;13.78;92.01;96322.31;4993696;28;20152;-77
2022/10/16 00:39:31;;;;;;;2.70;1.30;;;;;;;13.87;92.16;96316.75;4993849;28;20068;-78
2022/10/16 00:41:58;;;;;;;3.10;1.40;;;;;;;13.89;91.86;96309.00;4993773;28;20038;-79
2022/10/16 00:44:47;;;;;;;6.63;1.73;;;;;;;13.80;92.01;96309.91;4993395;28;20557;-78
2022/10/16 00:47:19;;;;;;;3.45;1.90;;;;;;;13.83;91.95;96309.22;4994074;28;20410;-79
2022/10/16 00:49:48;;;;;;;3.95;1.95;;;;;;;13.87;91.85;96303.06;4994529;28;20039;-79
2022/10/16 00:52:15;;;;;;;4.53;2.03;;;;;;;13.80;92.45;96298.94;4993529;28;20046;-78
2022/10/16 00:54:42;;;;;;;5.13;1.75;;;;;;;13.81;92.40;96300.53;4992622;28;20390;-79
2022/10/16 00:57:09;;;;;;;6.88;1.65;;;;;;;13.86;91.84;96306.94;4994208;28;20558;-78
2022/10/16 00:59:38;;;;;;;4.45;2.33;;;;;;;13.87;91.72;96303.06;4994793;28;20066;-78
2022/10/16 01:02:08;;;;;;;4.25;2.08;;;;;;;13.89;91.88;96317.22;4995038;28;20057;-78
2022/10/16 01:04:39;;;;;;;3.78;2.03;;;;;;;13.79;92.54;96313.78;4996410;28;20129;-79
2022/10/16 01:07:13;;;;;;;3.92;1.98;;;;;;;13.86;92.50;96310.47;4995233;28;20466;-78
2022/10/16 01:09:51;;;;;;;3.88;1.77;;;;;;;13.82;92.85;96307.59;4995413;28;20520;-78
2022/10/16 01:12:28;;;;;;;4.47;2.22;;;;;;;13.83;92.78;96302.94;4993250;28;20068;-79
2022/10/16 01:15:00;;;;;;;6.53;2.38;;;;;;;13.79;92.80;96300.09;4991229;28;20502;-79
2022/10/16 01:17:35;;;;;;;4.10;2.03;;;;;;;13.82;92.66;96304.06;4992439;28;20134;-77
2022/10/16 01:20:10;;;;;;;4.30;2.25;;;;;;;13.82;92.69;96313.06;4993337;28;20053;-77
2022/10/16 01:22:49;;;;;;;5.65;2.50;;;;;;;13.83;92.92;96314.69;4993589;28;20125;-78
2022/10/16 01:25:24;;;;;;;7.43;2.80;;;;;;;13.80;93.23;96320.03;4992802;28;20047;-78
2022/10/16 01:27:53;;;;;;;6.32;2.05;;;;;;;13.68;94.51;96323.56;4992537;28;20424;-77
2022/10/16 01:30:24;;;;;;;3.42;2.08;;;;;;;13.55;95.40;96319.19;4992174;28;20043;-78
2022/10/16 01:32:55;;;;;;;6.13;1.98;;;;;;;13.66;94.95;96325.81;4992742;28;20497;-79
2022/10/16 01:35:26;;;;;;;4.85;2.15;;;;;;;13.69;94.61;96329.84;4992160;28;20061;-77
2022/10/16 01:37:59;;;;;;;3.13;1.83;;;;;;;13.76;94.18;96336.34;4992643;28;20421;-79
2022/10/16 01:40:28;;;;;;;3.03;1.95;;;;;;;13.78;93.93;96331.34;4991686;28;20046;-78
2022/10/16 01:43:00;;;;;;;4.25;2.17;;;;;;;13.84;93.67;96338.19;4992486;28;20042;-78
2022/10/16 01:45:31;;;;;;;4.50;2.20;;;;;;;13.82;93.67;96337.72;4987313;28;20589;-79
2022/10/16 01:48:03;;;;;;;4.55;1.95;;;;;;;13.86;93.62;96328.84;4992137;28;20078;-78
2022/10/16 01:50:33;;;;;;;5.38;2.13;;;;;;;13.77;93.88;96326.97;4992169;28;20117;-79
2022/10/16 01:53:03;;;;;;;4.70;2.25;;;;;;;13.80;93.90;96320.84;4992411;28;20053;-78
2022/10/16 01:55:33;;;;;;;3.10;2.22;;;;;;;13.80;93.93;96314.56;4991960;28;20125;-79
2022/10/16 01:58:04;;;;;;;3.42;2.25;;;;;;;13.81;93.94;96311.47;4992108;28;20521;-78
2022/10/16 02:00:32;;;;;;;3.80;2.20;;;;;;;13.79;94.12;96310.25;4992432;28;20050;-77
2022/10/16 02:03:02;;;;;;;4.18;2.63;;;;;;;13.77;94.39;96310.56;4992123;28;20057;-78
2022/10/16 02:05:33;;;;;;;3.03;2.30;;;;;;;13.79;94.33;96308.31;4992080;28;20038;-78
2022/10/16 02:08:00;;;;;;;5.88;2.78;;;;;;;13.76;94.50;96311.69;4992042;28;20050;-78
2022/10/16 02:10:30;;;;;;;4.03;2.47;;;;;;;13.82;94.62;96312.28;4991487;28;20038;-78
2022/10/16 02:13:04;;;;;;;5.10;2.45;;;;;;;13.87;94.32;96316.75;4992147;28;20096;-78
2022/10/16 02:15:31;;;;;;;6.75;2.70;;;;;;;13.86;94.41;96323.34;4989959;28;20133;-79
2022/10/16 02:17:57;;;;;;;3.67;2.33;;;;;;;13.74;95.01;96316.72;4992084;28;20060;-78
2022/10/16 02:20:29;;;;;;;5.10;2.35;;;;;;;13.72;95.26;96307.25;4991705;28;20408;-78
2022/10/16 02:22:57;;;;;;;3.03;2.25;;;;;;;13.73;95.24;96304.19;4992320;28;20153;-79
2022/10/16 02:25:27;;;;;;;3.42;2.20;;;;;;;13.72;95.16;96312.72;4992620;28;20049;-78
2022/10/16 02:27:58;;;;;;;3.38;2.42;;;;;;;13.69;95.32;96314.22;4992394;28;20657;-79
2022/10/16 02:30:31;;;;;;;5.93;2.65;;;;;;;13.74;94.92;96319.47;4995498;28;20049;-79
2022/10/16 02:33:01;;;;;;;4.60;2.25;;;;;;;13.76;94.72;96328.13;4996524;28;20057;-78
2022/10/16 02:35:29;;;;;;;4.22;2.40;;;;;;;13.69;94.70;96336.09;4996095;28;20053;-77
2022/10/16 02:37:57;;;;;;;4.25;2.60;;;;;;;13.73;94.58;96342.50;4996247;28;20050;-78
2022/10/16 02:40:24;;;;;;;5.18;2.60;;;;;;;13.67;95.00;96332.09;4996190;28;20053;-79
2022/10/16 02:42:53;;;;;;;3.00;2.30;;;;;;;13.71;94.83;96331.06;4999282;28;20467;-79
2022/10/16 02:45:20;;;;;;;5.55;2.50;;;;;;;13.74;94.61;96330.41;4998119;28;20052;-77
2022/10/16 02:47:48;;;;;;;3.72;2.28;;;;;;;13.72;94.46;96327.19;4997722;28;20053;-78
2022/10/16 02:50:15;;;;;;;3.97;2.13;;;;;;;13.78;94.18;96331.34;4997338;28;20514;-78
2022/10/16 02:52:42;;;;;;;5.68;2.30;;;;;;;13.72;93.59;96340.88;4997362;28;20054;-78
2022/10/16 02:55:09;;;;;;;4.30;2.38;;;;;;;13.72;93.19;96340.88;4996197;28;20050;-79
2022/10/16 02:57:36;;;;;;;3.40;2.00;;;;;;;13.69;92.88;96338.84;4996885;28;20053;-78
2022/10/16 03:00:04;;;;;;;5.88;2.30;;;;;;;13.65;92.68;96351.59;4996545;28;20457;-78
2022/10/16 03:02:30;;;;;;;3.90;2.25;;;;;;;13.61;92.50;96347.91;4996877;28;20053;-78
2022/10/16 03:04:58;;;;;;;3.58;2.20;;;;;;;13.58;92.65;96345.88;4996848;28;20042;-79
2022/10/16 03:07:25;;;;;;;3.15;2.28;;;;;;;13.49;92.70;96331.47;4995971;28;20050;-78
2022/10/16 03:09:52;;;;;;;3.45;2.40;;;;;;;13.48;92.74;96329.88;4997583;28;20054;-78
2022/10/16 03:12:18;;;;;;;2.92;2.10;;;;;;;13.45;93.15;96323.13;4996638;28;20442;-79
2022/10/16 03:14:45;;;;;;;5.70;2.53;;;;;;;13.41;93.42;96330.41;4996280;28;20046;-77
2022/10/16 03:17:12;;;;;;;2.83;1.90;;;;;;;13.35;93.59;96330.97;5001399;28;20042;-79
2022/10/16 03:19:39;;;;;;;3.42;2.05;;;;;;;13.31;93.57;96337.13;5004644;28;20050;-79
2022/10/16 03:22:07;;;;;;;2.90;2.20;;;;;;;13.29;93.61;96338.56;5010711;28;20046;-79
2022/10/16 03:24:33;;;;;;;4.30;2.30;;;;;;;13.25;93.48;96343.91;5007152;28;20066;-78
2022/10/16 03:27:00;;;;;;;5.95;2.40;;;;;;;13.02;93.95;96339.91;5002415;28;20046;-78
2022/10/16 03:29:29;;;;;;;3.67;2.05;;;;;;;13.09;93.94;96347.56;5004221;28;20042;-79
2022/10/16 03:31:55;;;;;;;2.78;2.08;;;;;;;13.05;93.88;96350.19;4999323;28;20133;-79
2022/10/16 03:34:22;;;;;;;4.22;2.10;;;;;;;13.05;93.36;96333.78;5000554;28;20047;-78
2022/10/16 03:36:48;;;;;;;3.80;2.00;;;;;;;13.02;93.72;96334.44;5000845;28;20046;-78
2022/10/16 03:39:16;;;;;;;3.25;2.30;;;;;;;13.04;93.85;96334.91;4997019;28;20058;-79
2022/10/16 03:41:43;;;;;;;6.28;2.70;;;;;;;12.97;93.93;96340.09;4997169;28;20279;-79
2022/10/16 03:44:10;;;;;;;3.10;2.17;;;;;;;12.95;93.86;96345.91;4993370;28;20049;-78
2022/10/16 03:46:36;;;;;;;4.65;2.00;;;;;;;12.93;93.59;96350.09;4995994;28;20043;-78
2022/10/16 03:49:03;;;;;;;6.43;2.58;;;;;;;12.88;93.71;96339.38;4995685;28;20426;-77
2022/10/16 03:51:29;;;;;;;2.97;2.08;;;;;;;12.86;94.00;96345.16;4996115;28;20145;-78
2022/10/16 03:53:56;;;;;;;3.42;2.33;;;;;;;12.85;93.96;96337.31;4996487;28;20473;-79
2022/10/16 03:56:24;;;;;;;6.45;2.70;;;;;;;12.75;94.29;96342.03;4995901;28;20046;-79
2022/10/16 03:58:50;;;;;;;6.90;2.40;;;;;;;12.75;94.49;96339.31;4995804;28;20137;-78
2022/10/16 04:01:17;;;;;;;3.30;2.30;;;;;;;12.73;94.60;96347.00;4994975;28;20046;-80
2022/10/16 04:03:43;;;;;;;3.60;2.17;;;;;;;12.73;94.76;96349.75;4995653;28;20042;-78
2022/10/16 04:06:10;;;;;;;2.97;2.47;;;;;;;12.77;94.78;96353.41;4994232;28;20383;-78
2022/10/16 04:08:36;;;;;;;5.28;2.10;;;;;;;12.86;94.89;96363.50;4995314;28;20122;-78
2022/10/16 04:11:03;;;;;;;2.95;2.10;;;;;;;12.91;94.81;96372.31;4994737;28;20050;-78
2022/10/16 04:13:31;;;;;;;3.28;2.10;;;;;;;12.94;94.66;96366.16;4995187;28;20145;-78
2022/10/16 04:15:58;;;;;;;3.03;2.13;;;;;;;12.97;94.62;96370.19;4994805;28;20398;-77
2022/10/16 04:18:26;;;;;;;4.07;2.10;;;;;;;12.97;94.51;96375.63;4994588;28;20397;-77
2022/10/16 04:20:53;;;;;;;6.75;2.25;;;;;;;12.98;94.54;96375.31;4995611;28;20408;-78
2022/10/16 04:23:20;;;;;;;3.22;2.00;;;;;;;12.98;94.86;96369.03;4994837;28;20421;-79
2022/10/16 04:25:47;;;;;;;4.93;1.92;;;;;;;12.99;95.27;96373.38;4990882;28;20075;-78
2022/10/16 04:28:13;;;;;;;3.20;2.13;;;;;;;12.97;95.51;96370.97;4993144;28;20080;-79
2022/10/16 04:30:41;;;;;;;4.07;2.05;;;;;;;13.02;95.35;96372.72;4994926;28;20053;-78
2022/10/16 04:33:09;;;;;;;4.45;2.60;;;;;;;13.06;95.44;96370.91;4994694;28;20046;-79
2022/10/16 04:35:36;;;;;;;4.72;2.30;;;;;;;13.04;95.33;96371.22;4994509;28;20046;-79
2022/10/16 04:38:03;;;;;;;4.57;2.28;;;;;;;13.06;95.38;96370.91;4994752;28;20454;-77
2022/10/16 04:40:32;;;;;;;5.45;2.20;;;;;;;13.07;95.64;96369.78;4994936;28;20042;-78
2022/10/16 04:42:59;;;;;;;4.38;2.33;;;;;;;12.99;95.61;96362.44;4994836;28;20046;-78
2022/10/16 04:45:26;;;;;;;5.28;2.35;;;;;;;12.96;95.51;96363.13;4992046;28;20042;-78
2022/10/16 04:47:57;;;;;;;3.00;2.17;;;;;;;12.97;95.48;96364.72;4994749;28;20518;-78
2022/10/16 04:50:23;;;;;;;3.13;2.10;;;;;;;12.94;95.44;96360.69;4974186;28;20406;-78
2022/10/16 04:52:50;;;;;;;3.60;2.00;;;;;;;12.96;95.26;96361.19;4974230;28;20388;-78
2022/10/16 04:55:17;;;;;;;2.83;2.22;;;;;;;12.99;95.02;96354.22;4974705;28;20039;-79
2022/10/16 04:57:43;;;;;;;3.03;1.92;;;;;;;13.06;95.01;96357.25;4994067;28;20046;-79
2022/10/16 05:00:11;;;;;;;3.60;2.10;;;;;;;13.06;95.01;96363.50;4994496;28;20064;-79
2022/10/16 05:02:38;;;;;;;2.08;1.70;;;;;;;13.03;95.01;96357.91;4994691;28;20053;-77
2022/10/16 05:05:06;;;;;;;4.00;2.10;;;;;;;13.06;94.77;96360.78;4994207;28;20061;-78
2022/10/16 05:07:33;;;;;;;3.65;2.42;;;;;;;13.04;94.82;96354.81;4994648;28;20042;-78
2022/10/16 05:10:00;;;;;;;4.35;2.03;;;;;;;13.09;94.62;96362.03;4994771;28;20425;-78
2022/10/16 05:12:26;;;;;;;4.18;2.28;;;;;;;13.06;94.71;96359.97;4992590;28;20441;-78
2022/10/16 05:14:58;;;;;;;2.75;2.00;;;;;;;13.11;94.34;96361.72;4993987;28;20133;-78
2022/10/16 05:17:24;;;;;;;2.58;1.90;;;;;;;13.13;94.54;96364.91;4993762;28;20049;-79
2022/10/16 05:19:51;;;;;;;4.05;1.92;;;;;;;13.16;94.56;96367.78;4992721;28;20117;-78
2022/10/16 05:22:19;;;;;;;4.28;2.30;;;;;;;13.16;94.46;96359.56;4993928;28;20050;-79
2022/10/16 05:24:46;;;;;;;4.75;2.13;;;;;;;13.20;94.15;96359.69;4994591;28;20052;-78
2022/10/16 05:27:18;;;;;;;5.18;2.00;;;;;;;13.22;94.03;96358.28;4995412;28;20058;-79
2022/10/16 05:29:45;;;;;;;4.80;2.13;;;;;;;13.28;94.28;96365.13;4996691;28;20101;-78
2022/10/16 05:32:12;;;;;;;4.15;1.88;;;;;;;13.30;94.38;96351.91;4996408;28;20046;-77
2022/10/16 05:34:39;;;;;;;2.35;1.70;;;;;;;13.34;94.36;96359.44;4996359;28;20042;-78
2022/10/16 05:37:05;;;;;;;3.78;2.10;;;;;;;13.38;94.35;96363.13;4995921;28;20509;-78
2022/10/16 05:39:33;;;;;;;4.35;2.00;;;;;;;13.41;94.08;96365.16;4997063;28;20046;-78
2022/10/16 05:42:01;;;;;;;2.72;1.92;;;;;;;13.40;93.94;96363.56;4994886;28;20081;-78
2022/10/16 05:44:27;;;;;;;4.25;2.03;;;;;;;13.41;93.99;96367.91;4990733;28;20122;-79
2022/10/16 05:46:54;;;;;;;5.72;2.20;;;;;;;13.36;94.12;96366.19;4986905;28;20046;-79
2022/10/16 05:49:20;;;;;;;4.82;2.00;;;;;;;13.38;94.32;96368.59;4995230;28;20050;-79
2022/10/16 05:51:47;;;;;;;2.70;2.15;;;;;;;13.42;94.43;96377.75;4998605;28;20046;-78
2022/10/16 05:54:13;;;;;;;5.53;2.50;;;;;;;13.46;93.98;96381.38;4999658;28;20133;-78
2022/10/16 05:56:42;;;;;;;5.32;2.13;;;;;;;13.42;93.39;96394.16;4995322;28;20049;-78
2022/10/16 05:59:08;;;;;;;4.82;2.20;;;;;;;13.44;93.64;96403.59;4995577;28;20137;-78
2022/10/16 06:01:35;;;;;;;3.15;2.20;;;;;;;13.45;93.71;96402.47;4997568;28;20042;-77
2022/10/16 06:04:01;;;;;;;4.13;2.30;;;;;;;13.45;93.58;96390.72;4995177;28;20056;-75
2022/10/16 06:06:29;;;;;;;3.58;2.47;;;;;;;13.52;93.46;96407.38;4995116;28;20058;-78
2022/10/16 06:08:57;;;;;;;6.32;2.90;;;;;;;13.49;93.63;96408.06;4994405;28;20589;-78
2022/10/16 06:11:25;;;;;;;3.35;2.20;;;;;;;13.45;93.81;96405.19;4993562;28;20043;-78
2022/10/16 06:13:56;;;;;;;2.92;2.40;;;;;;;13.48;93.93;96401.00;4992751;28;20137;-78
2022/10/16 06:16:24;;;;;;;3.08;2.05;;;;;;;13.51;93.96;96397.59;4993008;28;20046;-78
2022/10/16 06:18:52;;;;;;;3.35;2.15;;;;;;;13.54;93.87;96399.66;4993686;28;20072;-77
2022/10/16 06:21:21;;;;;;;3.55;2.38;;;;;;;13.55;93.74;96412.19;4993686;28;20046;-77
2022/10/16 06:23:48;;;;;;;3.17;2.03;;;;;;;13.55;93.77;96404.78;4993936;28;20054;-80
2022/10/16 06:26:17;;;;;;;4.13;2.40;;;;;;;13.55;93.74;96406.72;4993097;28;20057;-78
2022/10/16 06:28:44;;;;;;;5.38;2.65;;;;;;;13.51;93.99;96408.53;4993262;28;20116;-78
2022/10/16 06:31:13;;;;;;;3.97;2.45;;;;;;;13.51;93.24;96423.00;4993379;28;20048;-78
2022/10/16 06:33:40;;;;;;;3.08;2.20;;;;;;;13.53;93.09;96425.44;4994091;28;20050;-78
2022/10/16 06:36:08;;;;;;;3.20;2.25;;;;;;;13.51;92.79;96428.47;4993811;28;20050;-79
2022/10/16 06:38:36;;;;;;;3.80;2.28;;;;;;;13.52;92.96;96432.84;4994061;28;20049;-78
2022/10/16 06:41:04;;;;;;;3.90;2.47;;;;;;;13.52;92.94;96426.53;4992959;28;20055;-77
2022/10/16 06:43:32;;;;;;;3.58;2.58;;;;;;;13.54;92.82;96436.03;4994093;28;20072;-78
2022/10/16 06:46:01;;;;;;;6.68;2.45;;;;;;;13.52;92.42;96442.94;4977283;28;20557;-78
2022/10/16 06:48:30;;;;;;;4.85;2.80;;;;;;;13.49;92.28;96443.63;4993962;28;20038;-79
2022/10/16 06:50:58;;;;;;;3.60;2.60;;;;;;;13.42;92.54;96446.13;4994089;28;20428;-79
2022/10/16 06:53:25;;;;;;;5.95;2.78;;;;;;;13.43;92.57;96447.72;4993749;28;20073;-78
2022/10/16 06:55:52;;;;;;;5.80;2.88;;;;;;;13.43;92.79;96444.97;4994014;28;20046;-79
2022/10/16 06:58:18;;;;;;;6.63;3.90;;;;;;;13.44;92.61;96450.09;4995175;28;20047;-78
2022/10/16 07:00:45;;;;;;;5.00;2.90;;;;;;;13.44;92.83;96454.78;4995377;28;20046;-78
2022/10/16 07:03:11;;;;;;;4.65;2.60;;;;;;;13.45;93.06;96451.69;4994313;28;20046;-78
2022/10/16 07:05:40;;;;;;;4.43;2.83;;;;;;;13.47;93.26;96454.91;4995429;28;20047;-78
2022/10/16 07:08:06;;;;;;;6.18;2.92;;;;;;;13.51;93.29;96463.25;5008950;28;20090;-77
2022/10/16 07:10:34;;;;;;;3.70;2.55;;;;;;;13.54;93.42;96468.84;5007886;28;20066;-78
2022/10/16 07:13:00;;;;;;;5.70;2.65;;;;;;;13.61;93.70;96476.53;5000120;28;20057;-78
2022/10/16 07:15:27;;;;;;;4.90;3.10;;;;;;;13.67;93.66;96477.91;5006171;28;20102;-78
2022/10/16 07:17:54;;;;;;;4.65;3.33;;;;;;;13.77;93.65;96479.44;5011311;28;20138;-78
2022/10/16 07:20:21;;;;;;;4.10;2.60;;;;;;;13.84;93.92;96480.53;5008147;28;20086;-78
2022/10/16 07:22:49;;;;;;;6.35;2.78;;;;;;;13.98;93.44;96488.44;5014069;28;20051;-78
2022/10/16 07:25:15;;;;;;;6.68;2.72;;;;;;;13.95;91.71;96491.06;5012344;28;20142;-77
2022/10/16 07:27:42;;;;;;;3.60;2.08;;;;;;;13.99;91.38;96486.50;5013201;28;20069;-79
2022/10/16 07:30:09;;;;;;;4.93;2.85;;;;;;;14.09;90.96;96486.06;5007410;28;20058;-78
2022/10/16 07:32:36;;;;;;;3.78;2.40;;;;;;;14.13;90.68;96497.16;5008190;28;20494;-78
2022/10/16 07:35:02;;;;;;;4.88;2.75;;;;;;;14.13;90.83;96492.47;5002662;28;20047;-77
2022/10/16 07:37:29;;;;;;;3.75;2.50;;;;;;;14.20;90.31;96492.75;4996961;28;20126;-78
2022/10/16 07:39:57;;;;;;;4.38;2.70;;;;;;;14.32;90.02;96492.78;4998623;28;20048;-78
2022/10/16 07:42:23;;;;;;;3.40;2.35;;;;;;;14.45;89.83;96503.75;4996159;28;20042;-79
2022/10/16 07:44:50;;;;;;;3.05;2.30;;;;;;;14.45;87.24;96488.09;4994280;28;20502;-77
2022/10/16 07:47:16;;;;;;;4.35;2.17;;;;;;;14.47;85.86;96501.50;4995746;28;20045;-78
2022/10/16 07:49:43;;;;;;;4.88;2.70;;;;;;;14.51;85.95;96502.41;4996688;28;20050;-77
2022/10/16 07:52:09;;;;;;;5.20;2.70;;;;;;;14.66;84.69;96509.97;4995666;28;20046;-78
2022/10/16 07:54:36;;;;;;;4.20;2.67;;;;;;;14.65;84.70;96508.38;4996376;28;20046;-77
2022/10/16 07:57:04;;;;;;;4.00;2.22;;;;;;;14.91;84.14;96515.50;5004180;28;20057;-77
2022/10/16 07:59:30;;;;;;;3.67;2.90;;;;;;;15.01;84.15;96512.31;5014348;28;20110;-81
2022/10/16 08:01:57;;;;;;;5.60;2.47;;;;;;;15.02;82.64;96516.66;5017856;28;20029;-80
2022/10/16 08:04:24;;;;;;;4.68;3.05;;;;;;;15.20;82.69;96526.25;5011136;28;20093;-82
2022/10/16 08:06:51;;;;;;;4.20;2.20;;;;;;;15.33;81.49;96516.88;5030920;28;20057;-81
2022/10/16 08:09:17;;;;;;;5.55;2.00;;;;;;;15.42;81.10;96529.69;5014132;28;20109;-81
2022/10/16 08:11:44;;;;;;;4.22;2.38;;;;;;;15.47;80.64;96527.50;5015264;28;20058;-81
2022/10/16 08:14:12;;;;;;;3.95;2.50;;;;;;;15.54;80.28;96524.16;5011749;28;20053;-80
2022/10/16 08:16:38;;;;;;;7.85;2.38;;;;;;;15.62;79.68;96531.47;5003701;28;20050;-79
2022/10/16 08:19:05;;;;;;;3.35;2.35;;;;;;;15.81;77.68;96528.94;5013620;28;20052;-79
2022/10/16 08:21:31;;;;;;;3.85;2.42;;;;;;;15.95;76.85;96536.00;5017704;28;20049;-80
2022/10/16 08:23:58;;;;;;;4.93;2.35;;;;;;;16.03;76.12;96537.81;5019240;28;20122;-80
2022/10/16 08:26:27;;;;;;;3.83;2.03;;;;;;;16.17;75.78;96540.94;5013218;28;20042;-81
2022/10/16 08:28:54;;;;;;;5.22;2.50;;;;;;;16.35;75.87;96545.00;5016331;28;20114;-80
2022/10/16 08:31:22;;;;;;;3.72;2.30;;;;;;;16.52;76.32;96537.59;5015767;28;20091;-81
2022/10/16 08:33:49;;;;;;;4.13;1.98;;;;;;;16.75;77.27;96538.63;5016970;28;20093;-80
2022/10/16 08:36:17;;;;;;;9.30;3.42;;;;;;;16.82;75.47;96540.78;5015951;28;20042;-81
2022/10/16 08:38:44;;;;;;;4.80;2.70;;;;;;;16.98;75.51;96540.78;5015693;28;20065;-80
2022/10/16 08:41:24;;;;;;;4.72;2.60;;;;;;;17.09;73.65;96539.09;5015235;28;20057;-80
2022/10/16 08:44:17;;;;;;;3.63;2.60;;;;;;;17.20;72.39;96545.66;5016293;28;20069;-79
2022/10/16 08:46:56;;;;;;;5.47;2.30;;;;;;;17.06;71.45;96553.53;4994792;28;20414;-80
2022/10/16 08:49:24;;;;;;;2.95;2.10;;;;;;;17.27;73.00;96550.53;4995707;28;20051;-81
2022/10/16 08:51:51;;;;;;;5.60;2.55;;;;;;;17.25;72.88;96542.63;4996297;28;20073;-80
2022/10/16 08:54:29;;;;;;;3.67;2.20;;;;;;;17.37;72.07;96550.78;5002784;28;20129;-80
2022/10/16 08:56:56;;;;;;;14.30;10.68;;;;;;;17.47;72.29;96546.69;5013939;28;20046;-80
2022/10/16 08:59:23;;;;;;;4.57;3.10;;;;;;;17.66;71.50;96559.72;5015394;28;20046;-80
2022/10/16 09:01:53;;;;;;;5.22;2.33;;;;;;;17.82;70.06;96559.69;5016013;28;20141;-81
2022/10/16 09:04:49;;;;;;;5.40;2.53;;;;;;;17.87;69.27;96557.47;5013989;28;20115;-81
2022/10/16 09:07:22;;;;;;;4.35;2.20;;;;;;;17.76;68.59;96564.69;5009577;28;20110;-80
2022/10/16 09:10:10;;;;;;;4.80;2.40;;;;;;;17.99;68.41;96560.06;5011835;28;20038;-81
2022/10/16 09:12:40;;;;;;;7.03;2.83;;;;;;;18.22;69.08;96564.91;5011194;28;20034;-80
2022/10/16 09:15:18;;;;;;;4.05;2.58;;;;;;;18.41;68.87;96558.56;5009269;28;20057;-80
2022/10/16 09:17:54;;;;;;;4.53;3.00;;;;;;;18.43;66.28;96568.09;5011485;28;20077;-80
2022/10/16 09:20:31;;;;;;;5.47;2.78;;;;;;;18.54;66.98;96561.97;5009235;28;20121;-80
2022/10/16 09:23:16;;;;;;;6.40;2.80;;;;;;;18.66;66.25;96559.06;5012006;28;20051;-81
2022/10/16 09:25:47;;;;;;;5.20;2.92;;;;;;;18.88;66.85;96561.06;5009891;28;20035;-80
2022/10/16 09:28:14;;;;;;;6.35;3.63;;;;;;;19.10;68.32;96555.91;5009652;28;20114;-79
2022/10/16 09:30:41;;;;;;;7.97;4.00;;;;;;;19.33;67.78;96553.16;5008298;28;20050;-80
2022/10/16 09:33:11;;;;;;;6.78;4.47;;;;;;;19.40;64.55;96553.25;5009578;28;20073;-80
2022/10/16 09:35:40;;;;;;;6.53;3.67;;;;;;;19.32;64.02;96555.13;5005715;28;20042;-80
2022/10/16 09:38:08;;;;;;;5.57;3.17;;;;;;;19.52;65.09;96551.13;5007161;28;20050;-79
2022/10/16 09:40:39;;;;;;;6.10;3.10;;;;;;;19.75;65.16;96555.81;5003695;28;20065;-80
2022/10/16 09:43:23;;;;;;;6.82;3.45;;;;;;;19.93;63.85;96558.81;4999637;28;20054;-80
2022/10/16 09:45:57;;;;;;;6.22;3.22;;;;;;;19.96;62.65;96561.63;4998704;28;20450;-79
2022/10/16 09:48:27;;;;;;;7.38;3.25;;;;;;;20.02;62.98;96568.44;4996898;28;20170;-79
2022/10/16 09:50:58;;;;;;;4.38;3.08;;;;;;;20.00;61.97;96565.25;4997246;28;20059;-79
2022/10/16 09:53:38;;;;;;;6.07;3.40;;;;;;;20.15;63.51;96566.25;4996347;28;20055;-80
2022/10/16 09:56:06;;;;;;;9.20;3.28;;;;;;;20.28;62.26;96569.56;4997248;28;20046;-80
2022/10/16 09:58:33;;;;;;;7.13;4.07;;;;;;;20.37;62.07;96572.84;4997976;28;20050;-80
2022/10/16 10:01:00;;;;;;;5.60;3.45;;;;;;;20.39;61.44;96570.47;4997389;28;20081;-79
2022/10/16 10:03:37;;;;;;;7.75;2.97;;;;;;;20.38;61.49;96571.66;4995620;28;20038;-79
2022/10/16 10:06:16;;;;;;;5.47;3.05;;;;;;;20.56;61.41;96578.22;4997291;28;20050;-79
2022/10/16 10:08:57;;;;;;;6.57;2.97;;;;;;;20.72;61.45;96582.75;4997630;28;20046;-78
2022/10/16 10:11:45;;;;;;;6.03;2.85;;;;;;;20.76;60.01;96591.88;4996083;28;20056;-80
2022/10/16 10:14:19;;;;;;;5.72;2.67;;;;;;;20.92;61.29;96592.44;4995331;28;20046;-78
2022/10/16 10:16:46;;;;;;;8.05;3.00;;;;;;;20.96;60.76;96586.97;4975521;28;20050;-79
2022/10/16 10:19:17;;;;;;;4.60;2.53;;;;;;;21.03;60.31;96582.28;4975777;28;20051;-80
2022/10/16 10:21:44;;;;;;;5.90;3.20;;;;;;;21.08;59.55;96581.94;4966374;28;20078;-78
2022/10/16 10:24:15;;;;;;;4.70;2.47;;;;;;;21.23;60.15;96579.31;4979389;28;20049;-79
2022/10/16 10:26:50;;;;;;;4.30;2.92;;;;;;;21.22;60.07;96581.28;4994927;28;20111;-78
2022/10/16 10:29:26;;;;;;;4.32;2.40;;;;;;;21.38;61.38;96575.53;4993000;28;20050;-79
2022/10/16 10:32:08;;;;;;;4.93;2.40;;;;;;;21.51;60.92;96571.28;4994621;28;20042;-78
2022/10/16 10:34:53;;;;;;;3.50;2.47;;;;;;;21.53;59.86;96576.44;4993865;28;20405;-79
2022/10/16 10:37:36;;;;;;;3.30;2.00;;;;;;;21.73;58.95;96574.22;4993244;28;20045;-77
2022/10/16 10:40:18;;;;;;;5.60;2.30;;;;;;;21.59;59.35;96581.22;4993480;28;20052;-78
2022/10/16 10:42:51;;;;;;;4.50;2.17;;;;;;;21.53;60.06;96582.78;4993642;28;20057;-78
2022/10/16 10:45:18;;;;;;;;;;;;;;;21.53;60.64;96582.78;4993647;28;20046;-78
2022/10/16 10:47:57;;;;;;;4.00;2.20;;;;;;;21.68;60.33;96577.34;4994081;28;20431;-78
2022/10/16 10:50:30;;;;;;;3.40;1.98;;;;;;;21.76;60.39;96567.88;4995428;28;20489;-79
2022/10/16 10:53:10;;;;;;;3.10;1.95;;;;;;;21.90;60.50;96562.44;4997922;28;20429;-79
2022/10/16 10:55:42;;;;;;;5.35;2.45;;;;;;;21.93;59.85;96561.69;4997982;28;20516;-78
2022/10/16 10:58:25;;;;;;;3.78;2.05;;;;;;;22.02;59.69;96566.84;4998048;28;20074;-79
2022/10/16 11:00:58;;;;;;;3.00;2.00;;;;;;;22.08;54.78;96573.63;4999124;28;20437;-77
2022/10/16 11:03:43;;;;;;;3.10;1.80;;;;;;;22.25;53.96;96577.72;5001284;28;20093;-79
2022/10/16 11:06:17;;;;;;;2.58;1.73;;;;;;;22.27;54.41;96578.13;4998524;28;20056;-77
2022/10/16 11:08:49;;;;;;;3.17;1.77;;;;;;;22.39;54.01;96572.22;4997961;28;20049;-78
2022/10/16 11:11:21;;;;;;;3.50;1.90;;;;;;;22.33;54.89;96571.00;4998353;28;20134;-78
2022/10/16 11:13:56;;;;;;;6.55;2.00;;;;;;;22.50;56.15;96573.09;4998594;28;20054;-78
2022/10/16 11:16:27;;;;;;;4.55;2.25;;;;;;;22.53;56.20;96577.84;4996756;28;20058;-77
2022/10/16 11:19:01;;;;;;;1.73;1.38;;;;;;;22.56;53.47;96571.53;4997330;28;20129;-78
2022/10/16 11:21:32;;;;;;;2.08;1.40;;;;;;;22.63;52.41;96565.19;4996024;28;20125;-77
2022/10/16 11:24:04;;;;;;;2.38;1.40;;;;;;;22.75;51.79;96572.34;4997282;28;20048;-77
2022/10/16 11:26:36;;;;;;;2.83;1.40;;;;;;;22.74;51.70;96560.47;4995914;28;20053;-78
2022/10/16 11:29:11;;;;;;;3.05;1.48;;;;;;;22.83;52.93;96569.22;4999224;28;20053;-79
2022/10/16 11:31:42;;;;;;;2.40;1.23;;;;;;;22.92;50.45;96566.09;4998935;28;20038;-79
2022/10/16 11:34:18;;;;;;;2.22;1.20;;;;;;;22.96;48.93;96566.88;4999104;28;20124;-79
2022/10/16 11:36:54;;;;;;;3.42;1.35;;;;;;;22.92;48.82;96561.34;4998863;28;20457;-79
2022/10/16 11:39:22;;;;;;;2.67;1.20;;;;;;;23.16;50.10;96565.34;5000466;28;20057;-79
2022/10/16 11:41:51;;;;;;;1.73;1.00;;;;;;;23.37;47.27;96560.97;5000000;28;20085;-80
2022/10/16 11:44:37;;;;;;;2.22;1.13;;;;;;;23.58;47.85;96572.09;4997114;28;20478;-79